createdAt,value
2016-05-21T00:00:54.717Z,0
2016-05-21T00:01:54.688Z,0
2016-05-21T00:02:54.519Z,0
2016-05-21T00:03:54.647Z,0
2016-05-21T00:04:54.617Z,0
2016-05-21T00:05:54.605Z,0
2016-05-21T00:06:54.591Z,0
2016-05-21T00:07:54.564Z,0
2016-05-21T00:08:54.535Z,0
2016-05-21T00:09:54.522Z,0
2016-05-21T00:10:54.352Z,0
2016-05-21T00:11:54.602Z,0
2016-05-21T00:12:54.183Z,0
2016-05-21T00:13:54.482Z,0
2016-05-21T00:14:54.485Z,0
2016-05-21T00:15:54.316Z,0
2016-05-21T00:16:54.468Z,0
2016-05-21T00:17:54.288Z,0
2016-05-21T00:18:54.422Z,0
2016-05-21T00:19:54.430Z,0
2016-05-21T00:20:54.407Z,0
2016-05-21T00:21:54.382Z,0
2016-05-21T00:22:54.357Z,0
2016-05-21T00:23:54.345Z,0
2016-05-21T00:24:54.320Z,0
2016-05-21T00:25:54.183Z,0
2016-05-21T00:26:54.312Z,0
2016-05-21T00:27:54.269Z,0
2016-05-21T00:28:54.241Z,0
2016-05-21T00:29:54.228Z,0
2016-05-21T00:30:54.059Z,0
2016-05-21T00:31:54.032Z,0
2016-05-21T00:32:54.176Z,0
2016-05-21T00:33:54.147Z,0
2016-05-21T00:34:53.978Z,0
2016-05-21T00:35:53.949Z,0
2016-05-21T00:36:54.076Z,0
2016-05-21T00:37:54.064Z,0
2016-05-21T00:38:54.051Z,0
2016-05-21T00:39:54.022Z,0
2016-05-21T00:40:53.869Z,0
2016-05-21T00:41:53.840Z,0
2016-05-21T00:42:53.952Z,0
2016-05-21T00:43:53.939Z,0
2016-05-21T00:44:53.910Z,0
2016-05-21T00:45:53.883Z,0
2016-05-21T00:46:53.870Z,0
2016-05-21T00:47:53.700Z,0
2016-05-21T00:48:53.844Z,0
2016-05-21T00:49:53.799Z,0
2016-05-21T00:50:53.802Z,0
2016-05-21T00:51:53.774Z,0
2016-05-21T00:52:53.744Z,0
2016-05-21T00:53:53.716Z,0
2016-05-21T00:54:53.703Z,0
2016-05-21T00:55:53.706Z,0
2016-05-21T00:56:53.662Z,0
2016-05-21T00:57:53.632Z,0
2016-05-21T00:58:53.620Z,0
2016-05-21T00:59:53.592Z,0
2016-05-21T01:00:53.579Z,0
2016-05-21T01:01:53.410Z,0
2016-05-21T01:02:53.537Z,0
2016-05-21T01:03:53.368Z,0
2016-05-21T01:04:53.496Z,0
2016-05-21T01:05:53.467Z,0
2016-05-21T01:06:53.470Z,0
2016-05-21T01:07:53.285Z,0
2016-05-21T01:08:53.412Z,0
2016-05-21T01:09:53.384Z,0
2016-05-21T01:10:53.214Z,0
2016-05-21T01:11:53.202Z,0
2016-05-21T01:12:53.017Z,0
2016-05-21T01:13:53.300Z,0
2016-05-21T01:14:53.273Z,0
2016-05-21T01:15:53.260Z,0
2016-05-21T01:16:53.231Z,0
2016-05-21T01:17:53.219Z,0
2016-05-21T01:18:53.033Z,0
2016-05-21T01:19:53.161Z,0
2016-05-21T01:20:53.008Z,0
2016-05-21T01:21:53.135Z,0
2016-05-21T01:22:53.122Z,0
2016-05-21T01:23:53.094Z,0
2016-05-21T01:24:52.909Z,0
2016-05-21T01:25:53.052Z,0
2016-05-21T01:26:52.882Z,0
2016-05-21T01:27:52.854Z,0
2016-05-21T01:28:52.982Z,0
2016-05-21T01:29:52.954Z,0
2016-05-21T01:30:52.785Z,0
2016-05-21T01:31:52.771Z,0
2016-05-21T01:32:52.899Z,0
2016-05-21T01:33:52.871Z,0
2016-05-21T01:34:52.842Z,0
2016-05-21T01:35:52.829Z,0
2016-05-21T01:36:52.817Z,0
2016-05-21T01:37:52.787Z,0
2016-05-21T01:38:52.759Z,0
2016-05-21T01:39:52.746Z,0
2016-05-21T01:40:52.717Z,0
2016-05-21T01:41:53.095Z,0
2016-05-21T01:42:52.520Z,0
2016-05-21T01:43:52.507Z,0
2016-05-21T01:44:52.635Z,0
2016-05-21T01:45:52.622Z,0
2016-05-21T01:46:52.594Z,0
2016-05-21T01:47:52.408Z,0
2016-05-21T01:48:52.239Z,0
2016-05-21T01:49:52.523Z,0
2016-05-21T01:50:52.510Z,0
2016-05-21T01:51:52.482Z,0
2016-05-21T01:52:52.468Z,0
2016-05-21T01:53:52.440Z,0
2016-05-21T01:54:52.443Z,0
2016-05-21T01:55:52.914Z,0
2016-05-21T01:56:52.386Z,0
2016-05-21T01:57:52.357Z,0
2016-05-21T01:58:52.329Z,0
2016-05-21T01:59:52.160Z,0
2016-05-21T02:00:52.287Z,0
2016-05-21T02:01:52.274Z,0
2016-05-21T02:02:52.089Z,0
2016-05-21T02:03:52.060Z,0
2016-05-21T02:04:52.204Z,0
2016-05-21T02:05:52.034Z,0
2016-05-21T02:06:52.162Z,0
2016-05-21T02:07:52.134Z,0
2016-05-21T02:08:52.120Z,0
2016-05-21T02:09:52.092Z,0
2016-05-21T02:10:51.923Z,0
2016-05-21T02:11:51.911Z,0
2016-05-21T02:12:52.039Z,0
2016-05-21T02:13:51.853Z,0
2016-05-21T02:14:51.997Z,0
2016-05-21T02:15:51.968Z,0
2016-05-21T02:16:51.955Z,0
2016-05-21T02:17:51.927Z,0
2016-05-21T02:18:51.913Z,0
2016-05-21T02:19:51.713Z,0
2016-05-21T02:20:51.856Z,0
2016-05-21T02:21:51.844Z,0
2016-05-21T02:22:51.815Z,0
2016-05-21T02:23:51.802Z,0
2016-05-21T02:24:51.617Z,0
2016-05-21T02:25:51.745Z,0
2016-05-21T02:26:51.997Z,0
2016-05-21T02:27:51.718Z,0
2016-05-21T02:28:51.691Z,0
2016-05-21T02:29:51.662Z,0
2016-05-21T02:30:51.649Z,0
2016-05-21T02:31:51.621Z,0
2016-05-21T02:32:51.435Z,0
2016-05-21T02:33:51.579Z,0
2016-05-21T02:34:51.565Z,0
2016-05-21T02:35:51.226Z,0
2016-05-21T02:36:51.523Z,0
2016-05-21T02:37:51.496Z,0
2016-05-21T02:38:51.327Z,0
2016-05-21T02:39:51.298Z,0
2016-05-21T02:40:51.426Z,0
2016-05-21T02:41:51.600Z,0
2016-05-21T02:42:51.244Z,0
2016-05-21T02:43:51.356Z,0
2016-05-21T02:44:51.342Z,0
2016-05-21T02:45:51.314Z,0
2016-05-21T02:46:51.300Z,0
2016-05-21T02:47:51.288Z,0
2016-05-21T02:48:51.260Z,0
2016-05-21T02:49:51.231Z,0
2016-05-21T02:50:51.219Z,0
2016-05-21T02:51:51.268Z,0
2016-05-21T02:52:51.208Z,0
2016-05-21T02:53:51.180Z,0
2016-05-21T02:54:51.260Z,0
2016-05-21T02:55:51.122Z,0
2016-05-21T02:56:51.110Z,0
2016-05-21T02:57:51.065Z,0
2016-05-21T02:58:51.037Z,0
2016-05-21T02:59:51.024Z,0
2016-05-21T03:00:50.996Z,0
2016-05-21T03:01:50.841Z,0
2016-05-21T03:02:50.968Z,0
2016-05-21T03:03:50.941Z,0
2016-05-21T03:04:50.912Z,0
2016-05-21T03:05:50.899Z,0
2016-05-21T03:06:50.870Z,0
2016-05-21T03:07:50.686Z,0
2016-05-21T03:08:50.845Z,0
2016-05-21T03:09:50.801Z,0
2016-05-21T03:10:50.787Z,0
2016-05-21T03:11:51.165Z,0
2016-05-21T03:12:50.575Z,0
2016-05-21T03:13:50.717Z,0
2016-05-21T03:14:50.705Z,0
2016-05-21T03:15:50.676Z,0
2016-05-21T03:16:50.663Z,5
2016-05-21T03:17:50.634Z,5
2016-05-21T03:18:50.622Z,5
2016-05-21T03:19:50.593Z,5
2016-05-21T03:20:50.581Z,5
2016-05-21T03:21:50.536Z,5
2016-05-21T03:22:50.383Z,5
2016-05-21T03:23:50.511Z,5
2016-05-21T03:24:50.482Z,5
2016-05-21T03:25:50.297Z,5
2016-05-21T03:26:50.705Z,5
2016-05-21T03:27:50.412Z,10
2016-05-21T03:28:50.399Z,10
2016-05-21T03:29:50.385Z,10
2016-05-21T03:30:50.373Z,10
2016-05-21T03:31:50.329Z,10
2016-05-21T03:32:50.315Z,15
2016-05-21T03:33:50.287Z,15
2016-05-21T03:34:50.290Z,15
2016-05-21T03:35:50.246Z,15
2016-05-21T03:36:50.217Z,20
2016-05-21T03:37:50.220Z,20
2016-05-21T03:38:50.020Z,20
2016-05-21T03:39:50.006Z,25
2016-05-21T03:40:50.134Z,25
2016-05-21T03:41:49.856Z,25
2016-05-21T03:42:50.108Z,30
2016-05-21T03:43:49.923Z,30
2016-05-21T03:44:50.051Z,35
2016-05-21T03:45:50.038Z,35
2016-05-21T03:46:50.009Z,35
2016-05-21T03:47:49.997Z,40
2016-05-21T03:48:49.812Z,40
2016-05-21T03:49:49.939Z,40
2016-05-21T03:50:49.927Z,45
2016-05-21T03:51:49.742Z,45
2016-05-21T03:52:49.885Z,50
2016-05-21T03:53:49.560Z,50
2016-05-21T03:54:49.844Z,50
2016-05-21T03:55:49.815Z,55
2016-05-21T03:56:49.802Z,55
2016-05-21T03:57:49.774Z,60
2016-05-21T03:58:49.761Z,65
2016-05-21T03:59:49.576Z,65
2016-05-21T04:00:49.719Z,70
2016-05-21T04:01:49.549Z,75
2016-05-21T04:02:49.365Z,80
2016-05-21T04:03:49.649Z,85
2016-05-21T04:04:49.652Z,90
2016-05-21T04:05:49.607Z,90
2016-05-21T04:06:49.610Z,90
2016-05-21T04:07:49.566Z,95
2016-05-21T04:08:49.553Z,100
2016-05-21T04:09:49.368Z,100
2016-05-21T04:10:49.356Z,105
2016-05-21T04:11:49.529Z,105
2016-05-21T04:12:49.470Z,105
2016-05-21T04:13:49.285Z,105
2016-05-21T04:14:49.413Z,110
2016-05-21T04:15:49.401Z,110
2016-05-21T04:16:49.387Z,110
2016-05-21T04:17:49.203Z,115
2016-05-21T04:18:49.330Z,115
2016-05-21T04:19:49.161Z,115
2016-05-21T04:20:49.289Z,120
2016-05-21T04:21:49.120Z,125
2016-05-21T04:22:49.247Z,125
2016-05-21T04:23:49.250Z,130
2016-05-21T04:24:49.205Z,135
2016-05-21T04:25:49.037Z,140
2016-05-21T04:26:49.023Z,145
2016-05-21T04:27:49.166Z,150
2016-05-21T04:28:48.966Z,155
2016-05-21T04:29:49.094Z,160
2016-05-21T04:30:49.081Z,160
2016-05-21T04:31:49.083Z,165
2016-05-21T04:32:49.040Z,170
2016-05-21T04:33:49.026Z,175
2016-05-21T04:34:48.998Z,180
2016-05-21T04:35:48.673Z,185
2016-05-21T04:36:48.956Z,190
2016-05-21T04:37:48.929Z,195
2016-05-21T04:38:48.931Z,200
2016-05-21T04:39:48.918Z,215
2016-05-21T04:40:48.718Z,240
2016-05-21T04:41:49.376Z,255
2016-05-21T04:42:48.848Z,270
2016-05-21T04:43:48.803Z,280
2016-05-21T04:44:48.790Z,290
2016-05-21T04:45:48.762Z,295
2016-05-21T04:46:48.749Z,290
2016-05-21T04:47:48.580Z,285
2016-05-21T04:48:48.551Z,285
2016-05-21T04:49:48.539Z,290
2016-05-21T04:50:48.526Z,300
2016-05-21T04:51:48.637Z,310
2016-05-21T04:52:48.625Z,315
2016-05-21T04:53:48.455Z,315
2016-05-21T04:54:48.442Z,310
2016-05-21T04:55:48.570Z,310
2016-05-21T04:56:48.589Z,305
2016-05-21T04:57:48.528Z,300
2016-05-21T04:58:48.515Z,295
2016-05-21T04:59:48.488Z,295
2016-05-21T05:00:48.458Z,300
2016-05-21T05:01:48.289Z,305
2016-05-21T05:02:48.416Z,305
2016-05-21T05:03:48.404Z,295
2016-05-21T05:04:48.235Z,300
2016-05-21T05:05:48.363Z,300
2016-05-21T05:06:48.365Z,310
2016-05-21T05:07:48.321Z,325
2016-05-21T05:08:48.307Z,350
2016-05-21T05:09:48.296Z,380
2016-05-21T05:10:48.282Z,405
2016-05-21T05:11:48.410Z,425
2016-05-21T05:12:48.069Z,460
2016-05-21T05:13:48.056Z,460
2016-05-21T05:14:48.184Z,465
2016-05-21T05:15:48.015Z,455
2016-05-21T05:16:48.174Z,450
2016-05-21T05:17:48.145Z,430
2016-05-21T05:18:48.117Z,420
2016-05-21T05:19:48.087Z,410
2016-05-21T05:20:48.075Z,400
2016-05-21T05:21:48.062Z,405
2016-05-21T05:22:48.049Z,395
2016-05-21T05:23:48.020Z,405
2016-05-21T05:24:47.851Z,400
2016-05-21T05:25:47.838Z,390
2016-05-21T05:26:48.044Z,380
2016-05-21T05:27:47.938Z,380
2016-05-21T05:28:47.924Z,390
2016-05-21T05:29:47.897Z,410
2016-05-21T05:30:47.742Z,425
2016-05-21T05:31:47.885Z,435
2016-05-21T05:32:47.701Z,440
2016-05-21T05:33:47.688Z,430
2016-05-21T05:34:47.660Z,410
2016-05-21T05:35:47.802Z,385
2016-05-21T05:36:47.775Z,365
2016-05-21T05:37:47.760Z,360
2016-05-21T05:38:47.592Z,355
2016-05-21T05:39:47.751Z,360
2016-05-21T05:40:47.707Z,370
2016-05-21T05:41:47.709Z,390
2016-05-21T05:42:47.681Z,420
2016-05-21T05:43:47.652Z,450
2016-05-21T05:44:47.624Z,485
2016-05-21T05:45:47.611Z,520
2016-05-21T05:46:47.598Z,535
2016-05-21T05:47:47.272Z,565
2016-05-21T05:48:47.556Z,580
2016-05-21T05:49:47.543Z,585
2016-05-21T05:50:47.531Z,585
2016-05-21T05:51:47.517Z,575
2016-05-21T05:52:47.489Z,570
2016-05-21T05:53:47.320Z,575
2016-05-21T05:54:47.463Z,575
2016-05-21T05:55:47.434Z,575
2016-05-21T05:56:47.516Z,565
2016-05-21T05:57:47.253Z,565
2016-05-21T05:58:47.396Z,590
2016-05-21T05:59:47.211Z,560
2016-05-21T06:00:47.197Z,595
2016-05-21T06:01:47.341Z,570
2016-05-21T06:02:47.328Z,580
2016-05-21T06:03:47.300Z,650
2016-05-21T06:04:47.272Z,670
2016-05-21T06:05:47.118Z,700
2016-05-21T06:06:47.246Z,795
2016-05-21T06:07:47.232Z,1025
2016-05-21T06:08:47.219Z,1255
2016-05-21T06:09:47.051Z,1305
2016-05-21T06:10:47.179Z,1340
2016-05-21T06:11:47.102Z,1330
2016-05-21T06:12:47.152Z,1300
2016-05-21T06:13:47.140Z,1300
2016-05-21T06:14:47.142Z,800
2016-05-21T06:15:47.113Z,730
2016-05-21T06:16:47.085Z,725
2016-05-21T06:17:46.915Z,755
2016-05-21T06:18:47.059Z,1055
2016-05-21T06:19:46.890Z,1215
2016-05-21T06:20:47.033Z,1255
2016-05-21T06:21:46.723Z,1240
2016-05-21T06:22:47.023Z,1285
2016-05-21T06:23:46.979Z,1235
2016-05-21T06:24:46.966Z,1120
2016-05-21T06:25:46.953Z,1115
2016-05-21T06:26:47.300Z,1040
2016-05-21T06:27:46.927Z,985
2016-05-21T06:28:46.914Z,900
2016-05-21T06:29:46.917Z,795
2016-05-21T06:30:46.888Z,805
2016-05-21T06:31:46.875Z,1120
2016-05-21T06:32:46.862Z,1220
2016-05-21T06:33:46.552Z,1460
2016-05-21T06:34:46.680Z,1515
2016-05-21T06:35:46.808Z,915
2016-05-21T06:36:46.811Z,1445
2016-05-21T06:37:46.797Z,1165
2016-05-21T06:38:46.785Z,1210
2016-05-21T06:39:46.772Z,1280
2016-05-21T06:40:46.603Z,1200
2016-05-21T06:41:46.745Z,885
2016-05-21T06:42:46.733Z,920
2016-05-21T06:43:46.704Z,1070
2016-05-21T06:44:46.691Z,1000
2016-05-21T06:45:46.693Z,945
2016-05-21T06:46:46.681Z,910
2016-05-21T06:47:46.668Z,875
2016-05-21T06:48:46.656Z,880
2016-05-21T06:49:46.643Z,890
2016-05-21T06:50:46.489Z,865
2016-05-21T06:51:46.617Z,1085
2016-05-21T06:52:46.587Z,1180
2016-05-21T06:53:46.590Z,970
2016-05-21T06:54:46.578Z,1055
2016-05-21T06:55:46.565Z,1090
2016-05-21T06:56:46.880Z,1365
2016-05-21T06:57:46.555Z,1120
2016-05-21T06:58:46.526Z,1150
2016-05-21T06:59:46.513Z,1270
2016-05-21T07:00:46.344Z,1485
2016-05-21T07:01:46.487Z,1215
2016-05-21T07:02:46.474Z,1220
2016-05-21T07:03:46.461Z,1205
2016-05-21T07:04:46.449Z,1270
2016-05-21T07:05:46.295Z,1200
2016-05-21T07:06:46.422Z,1215
2016-05-21T07:07:46.410Z,1075
2016-05-21T07:08:46.256Z,1050
2016-05-21T07:09:46.399Z,1015
2016-05-21T07:10:46.370Z,1005
2016-05-21T07:11:47.171Z,1045
2016-05-21T07:12:46.360Z,995
2016-05-21T07:13:46.191Z,860
2016-05-21T07:14:46.179Z,845
2016-05-21T07:15:46.165Z,890
2016-05-21T07:16:46.309Z,890
2016-05-21T07:17:46.155Z,890
2016-05-21T07:18:46.283Z,910
2016-05-21T07:19:46.129Z,1040
2016-05-21T07:20:46.117Z,1350
2016-05-21T07:21:46.260Z,1185
2016-05-21T07:22:46.247Z,1415
2016-05-21T07:23:46.234Z,1625
2016-05-21T07:24:46.080Z,1670
2016-05-21T07:25:46.052Z,1605
2016-05-21T07:26:46.320Z,1765
2016-05-21T07:27:46.041Z,1890
2016-05-21T07:28:46.170Z,1660
2016-05-21T07:29:46.172Z,1880
2016-05-21T07:30:46.144Z,1795
2016-05-21T07:31:45.990Z,1715
2016-05-21T07:32:46.133Z,1820
2016-05-21T07:33:46.120Z,1975
2016-05-21T07:34:45.950Z,2215
2016-05-21T07:35:45.953Z,2080
2016-05-21T07:36:45.785Z,2165
2016-05-21T07:37:46.083Z,2095
2016-05-21T07:38:45.758Z,2005
2016-05-21T07:39:46.074Z,1930
2016-05-21T07:40:46.061Z,2340
2016-05-21T07:41:46.094Z,2040
2016-05-21T07:42:46.051Z,2670
2016-05-21T07:43:45.913Z,2680
2016-05-21T07:44:46.024Z,1475
2016-05-21T07:45:45.871Z,1515
2016-05-21T07:46:45.858Z,2270
2016-05-21T07:47:46.002Z,1610
2016-05-21T07:48:45.988Z,1785
2016-05-21T07:49:45.991Z,1530
2016-05-21T07:50:45.979Z,1540
2016-05-21T07:51:45.809Z,1405
2016-05-21T07:52:45.952Z,1380
2016-05-21T07:53:45.956Z,1365
2016-05-21T07:54:45.942Z,1345
2016-05-21T07:55:45.945Z,1290
2016-05-21T07:56:45.807Z,1225
2016-05-21T07:57:45.778Z,1110
2016-05-21T07:58:45.937Z,975
2016-05-21T07:59:45.925Z,865
2016-05-21T08:00:45.912Z,785
2016-05-21T08:01:45.883Z,745
2016-05-21T08:02:45.573Z,715
2016-05-21T08:03:45.872Z,675
2016-05-21T08:04:45.860Z,630
2016-05-21T08:05:45.847Z,590
2016-05-21T08:06:45.850Z,565
2016-05-21T08:07:45.680Z,565
2016-05-21T08:08:45.824Z,600
2016-05-21T08:09:45.827Z,645
2016-05-21T08:10:45.813Z,690
2016-05-21T08:11:46.379Z,730
2016-05-21T08:12:45.788Z,730
2016-05-21T08:13:45.790Z,700
2016-05-21T08:14:45.606Z,650
2016-05-21T08:15:45.748Z,630
2016-05-21T08:16:45.752Z,650
2016-05-21T08:17:45.723Z,700
2016-05-21T08:18:45.726Z,740
2016-05-21T08:19:45.697Z,770
2016-05-21T08:20:45.699Z,805
2016-05-21T08:21:45.702Z,840
2016-05-21T08:22:45.674Z,860
2016-05-21T08:23:45.504Z,880
2016-05-21T08:24:45.648Z,925
2016-05-21T08:25:45.635Z,1025
2016-05-21T08:26:45.778Z,1180
2016-05-21T08:27:45.625Z,1570
2016-05-21T08:28:45.596Z,1610
2016-05-21T08:29:45.584Z,1650
2016-05-21T08:30:45.570Z,1695
2016-05-21T08:31:45.417Z,1725
2016-05-21T08:32:45.450Z,1650
2016-05-21T08:33:45.391Z,1720
2016-05-21T08:34:45.534Z,1715
2016-05-21T08:35:45.365Z,1785
2016-05-21T08:36:45.368Z,1760
2016-05-21T08:37:45.511Z,1820
2016-05-21T08:38:45.498Z,1680
2016-05-21T08:39:45.485Z,1465
2016-05-21T08:40:45.488Z,1300
2016-05-21T08:41:45.241Z,1405
2016-05-21T08:42:45.446Z,1285
2016-05-21T08:43:45.293Z,1255
2016-05-21T08:44:45.280Z,1270
2016-05-21T08:45:45.423Z,1315
2016-05-21T08:46:45.410Z,1365
2016-05-21T08:47:45.397Z,1390
2016-05-21T08:48:45.385Z,1330
2016-05-21T08:49:45.387Z,1265
2016-05-21T08:50:45.218Z,1265
2016-05-21T08:51:45.361Z,1290
2016-05-21T08:52:45.192Z,1315
2016-05-21T08:53:45.351Z,1300
2016-05-21T08:54:45.354Z,1235
2016-05-21T08:55:45.184Z,1180
2016-05-21T08:56:45.625Z,1185
2016-05-21T08:57:45.159Z,1240
2016-05-21T08:58:45.302Z,1320
2016-05-21T08:59:45.273Z,1585
2016-05-21T09:00:45.276Z,1530
2016-05-21T09:01:45.106Z,1910
2016-05-21T09:02:45.095Z,1735
2016-05-21T09:03:45.097Z,1270
2016-05-21T09:04:45.083Z,1405
2016-05-21T09:05:45.071Z,1310
2016-05-21T09:06:45.058Z,1635
2016-05-21T09:07:45.201Z,1375
2016-05-21T09:08:45.204Z,1510
2016-05-21T09:09:45.051Z,2240
2016-05-21T09:10:45.178Z,1440
2016-05-21T09:11:44.947Z,1755
2016-05-21T09:12:45.011Z,2615
2016-05-21T09:13:45.155Z,2550
2016-05-21T09:14:44.986Z,2400
2016-05-21T09:15:44.972Z,2335
2016-05-21T09:16:44.975Z,2275
2016-05-21T09:17:44.985Z,2195
2016-05-21T09:18:44.993Z,2340
2016-05-21T09:19:45.172Z,2370
2016-05-21T09:20:45.181Z,2360
2016-05-21T09:21:45.205Z,1480
2016-05-21T09:22:45.042Z,2400
2016-05-21T09:23:45.053Z,2350
2016-05-21T09:24:45.205Z,1440
2016-05-21T09:25:45.199Z,2445
2016-05-21T09:26:46.006Z,2525
2016-05-21T09:27:45.198Z,2565
2016-05-21T09:28:45.203Z,1815
2016-05-21T09:29:45.194Z,2190
2016-05-21T09:30:45.042Z,2450
2016-05-21T09:31:45.189Z,2400
2016-05-21T09:32:45.193Z,2430
2016-05-21T09:33:45.180Z,2440
2016-05-21T09:34:45.185Z,2615
2016-05-21T09:35:45.173Z,2705
2016-05-21T09:36:45.161Z,2875
2016-05-21T09:37:45.008Z,2885
2016-05-21T09:38:45.153Z,2835
2016-05-21T09:39:45.155Z,1215
2016-05-21T09:40:45.158Z,2825
2016-05-21T09:41:45.005Z,2840
2016-05-21T09:42:45.133Z,2885
2016-05-21T09:43:45.135Z,2830
2016-05-21T09:44:45.137Z,1215
2016-05-21T09:45:44.968Z,1235
2016-05-21T09:46:45.112Z,2205
2016-05-21T09:47:44.959Z,2880
2016-05-21T09:48:45.118Z,2915
2016-05-21T09:49:45.103Z,2915
2016-05-21T09:50:44.951Z,2860
2016-05-21T09:51:45.109Z,2650
2016-05-21T09:52:45.097Z,2745
2016-05-21T09:53:45.099Z,2440
2016-05-21T09:54:44.930Z,2850
2016-05-21T09:55:44.933Z,2765
2016-05-21T09:56:45.560Z,2935
2016-05-21T09:57:44.766Z,2810
2016-05-21T09:58:44.925Z,2780
2016-05-21T09:59:45.069Z,2390
2016-05-21T10:00:44.915Z,2975
2016-05-21T10:01:44.902Z,1530
2016-05-21T10:02:45.061Z,1310
2016-05-21T10:03:44.908Z,1170
2016-05-21T10:04:45.051Z,1070
2016-05-21T10:05:45.054Z,1055
2016-05-21T10:06:45.057Z,1085
2016-05-21T10:07:45.043Z,1685
2016-05-21T10:08:45.046Z,1170
2016-05-21T10:09:45.065Z,3060
2016-05-21T10:10:45.035Z,3290
2016-05-21T10:11:45.335Z,2475
2016-05-21T10:12:45.026Z,2020
2016-05-21T10:13:45.012Z,1470
2016-05-21T10:14:45.031Z,1310
2016-05-21T10:15:45.017Z,1285
2016-05-21T10:16:45.006Z,1225
2016-05-21T10:17:44.836Z,1235
2016-05-21T10:18:44.994Z,1650
2016-05-21T10:19:44.997Z,1830
2016-05-21T10:20:44.985Z,2630
2016-05-21T10:21:44.972Z,1655
2016-05-21T10:22:44.975Z,1815
2016-05-21T10:23:44.978Z,1735
2016-05-21T10:24:44.964Z,1405
2016-05-21T10:25:44.982Z,1175
2016-05-21T10:26:44.797Z,1130
2016-05-21T10:27:44.941Z,1205
2016-05-21T10:28:44.928Z,1485
2016-05-21T10:29:44.946Z,1395
2016-05-21T10:30:44.918Z,1315
2016-05-21T10:31:44.905Z,1420
2016-05-21T10:32:44.908Z,1925
2016-05-21T10:33:44.894Z,1580
2016-05-21T10:34:44.882Z,1600
2016-05-21T10:35:44.728Z,1340
2016-05-21T10:36:44.716Z,1340
2016-05-21T10:37:44.874Z,1935
2016-05-21T10:38:44.846Z,2355
2016-05-21T10:39:44.849Z,3540
2016-05-21T10:40:44.835Z,2390
2016-05-21T10:41:44.822Z,2595
2016-05-21T10:42:44.825Z,2995
2016-05-21T10:43:44.812Z,1245
2016-05-21T10:44:44.815Z,1155
2016-05-21T10:45:44.801Z,2095
2016-05-21T10:46:44.789Z,1425
2016-05-21T10:47:44.792Z,1160
2016-05-21T10:48:44.779Z,1090
2016-05-21T10:49:44.781Z,1125
2016-05-21T10:50:44.768Z,3550
2016-05-21T10:51:44.615Z,3475
2016-05-21T10:52:44.759Z,1145
2016-05-21T10:53:44.761Z,945
2016-05-21T10:54:44.764Z,880
2016-05-21T10:55:44.595Z,885
2016-05-21T10:56:44.723Z,915
2016-05-21T10:57:44.740Z,1035
2016-05-21T10:58:44.728Z,1345
2016-05-21T10:59:44.714Z,1815
2016-05-21T11:00:44.702Z,2385
2016-05-21T11:01:44.391Z,1475
2016-05-21T11:02:44.692Z,1475
2016-05-21T11:03:44.678Z,2475
2016-05-21T11:04:44.524Z,2620
2016-05-21T11:05:44.512Z,2670
2016-05-21T11:06:44.358Z,2890
2016-05-21T11:07:44.346Z,3110
2016-05-21T11:08:44.660Z,3070
2016-05-21T11:09:44.648Z,3150
2016-05-21T11:10:44.479Z,3195
2016-05-21T11:11:44.919Z,3050
2016-05-21T11:12:44.624Z,3260
2016-05-21T11:13:44.612Z,3555
2016-05-21T11:14:44.615Z,1645
2016-05-21T11:15:44.460Z,3250
2016-05-21T11:16:44.448Z,3085
2016-05-21T11:17:44.607Z,3190
2016-05-21T11:18:44.593Z,1400
2016-05-21T11:19:44.440Z,1325
2016-05-21T11:20:44.443Z,1855
2016-05-21T11:21:44.430Z,2650
2016-05-21T11:22:44.120Z,1395
2016-05-21T11:23:44.451Z,1165
2016-05-21T11:24:44.578Z,1125
2016-05-21T11:25:44.597Z,1195
2016-05-21T11:26:44.568Z,2490
2016-05-21T11:27:44.572Z,2600
2016-05-21T11:28:44.417Z,2590
2016-05-21T11:29:44.577Z,2890
2016-05-21T11:30:44.547Z,3105
2016-05-21T11:31:44.550Z,3225
2016-05-21T11:32:44.569Z,2740
2016-05-21T11:33:44.384Z,1880
2016-05-21T11:34:44.543Z,3035
2016-05-21T11:35:44.374Z,2840
2016-05-21T11:36:44.533Z,2655
2016-05-21T11:37:44.380Z,1355
2016-05-21T11:38:44.522Z,1215
2016-05-21T11:39:44.525Z,1205
2016-05-21T11:40:44.527Z,1210
2016-05-21T11:41:44.421Z,1285
2016-05-21T11:42:44.361Z,1425
2016-05-21T11:43:44.505Z,1390
2016-05-21T11:44:44.351Z,1300
2016-05-21T11:45:44.495Z,1230
2016-05-21T11:46:44.498Z,1210
2016-05-21T11:47:44.329Z,1270
2016-05-21T11:48:44.471Z,1250
2016-05-21T11:49:44.318Z,1200
2016-05-21T11:50:44.304Z,1200
2016-05-21T11:51:44.464Z,1340
2016-05-21T11:52:44.467Z,1790
2016-05-21T11:53:44.453Z,2290
2016-05-21T11:54:44.284Z,2510
2016-05-21T11:55:44.443Z,2405
2016-05-21T11:56:44.118Z,1555
2016-05-21T11:57:44.417Z,2615
2016-05-21T11:58:44.264Z,2530
2016-05-21T11:59:44.407Z,2605
2016-05-21T12:00:44.410Z,2705
2016-05-21T12:01:44.240Z,2250
2016-05-21T12:02:44.244Z,2520
2016-05-21T12:03:44.387Z,2055
2016-05-21T12:04:44.233Z,1765
2016-05-21T12:05:44.376Z,1765
2016-05-21T12:06:44.363Z,1845
2016-05-21T12:07:44.366Z,1840
2016-05-21T12:08:44.213Z,1570
2016-05-21T12:09:44.356Z,1480
2016-05-21T12:10:44.046Z,1435
2016-05-21T12:11:44.049Z,1470
2016-05-21T12:12:44.332Z,1445
2016-05-21T12:13:44.335Z,1785
2016-05-21T12:14:44.338Z,1870
2016-05-21T12:15:44.169Z,2655
2016-05-21T12:16:44.312Z,1605
2016-05-21T12:17:44.315Z,1480
2016-05-21T12:18:44.302Z,2685
2016-05-21T12:19:44.304Z,3045
2016-05-21T12:20:44.292Z,3110
2016-05-21T12:21:44.138Z,3135
2016-05-21T12:22:44.125Z,1570
2016-05-21T12:23:44.284Z,2705
2016-05-21T12:24:44.287Z,3280
2016-05-21T12:25:44.273Z,1635
2016-05-21T12:26:44.136Z,2480
2016-05-21T12:27:44.108Z,3680
2016-05-21T12:28:44.266Z,3560
2016-05-21T12:29:44.253Z,2930
2016-05-21T12:30:44.256Z,3345
2016-05-21T12:31:44.087Z,3210
2016-05-21T12:32:44.247Z,3290
2016-05-21T12:33:44.249Z,3320
2016-05-21T12:34:44.236Z,3345
2016-05-21T12:35:44.238Z,1455
2016-05-21T12:36:44.241Z,1350
2016-05-21T12:37:44.227Z,1195
2016-05-21T12:38:44.231Z,1700
2016-05-21T12:39:44.233Z,1195
2016-05-21T12:40:44.220Z,1240
2016-05-21T12:41:44.552Z,1250
2016-05-21T12:42:44.226Z,1340
2016-05-21T12:43:44.213Z,3175
2016-05-21T12:44:44.060Z,2945
2016-05-21T12:45:44.062Z,3135
2016-05-21T12:46:44.205Z,3195
2016-05-21T12:47:44.207Z,3350
2016-05-21T12:48:44.210Z,3270
2016-05-21T12:49:44.198Z,1340
2016-05-21T12:50:44.201Z,1370
2016-05-21T12:51:44.048Z,1355
2016-05-21T12:52:44.190Z,1730
2016-05-21T12:53:44.193Z,3275
2016-05-21T12:54:44.180Z,3225
2016-05-21T12:55:44.026Z,3300
2016-05-21T12:56:44.201Z,3200
2016-05-21T12:57:44.188Z,3160
2016-05-21T12:58:44.034Z,3140
2016-05-21T12:59:44.194Z,3160
2016-05-21T13:00:44.181Z,3115
2016-05-21T13:01:44.027Z,3160
2016-05-21T13:02:44.030Z,3080
2016-05-21T13:03:44.173Z,3320
2016-05-21T13:04:44.019Z,3280
2016-05-21T13:05:44.178Z,1305
2016-05-21T13:06:44.180Z,1780
2016-05-21T13:07:44.168Z,3400
2016-05-21T13:08:44.171Z,3355
2016-05-21T13:09:44.174Z,3205
2016-05-21T13:10:43.864Z,3105
2016-05-21T13:11:44.022Z,3245
2016-05-21T13:12:44.166Z,2820
2016-05-21T13:13:44.168Z,2540
2016-05-21T13:14:44.172Z,3555
2016-05-21T13:15:44.017Z,3565
2016-05-21T13:16:44.176Z,3655
2016-05-21T13:17:44.163Z,3355
2016-05-21T13:18:44.026Z,3340
2016-05-21T13:19:44.013Z,3210
2016-05-21T13:20:44.015Z,3325
2016-05-21T13:21:44.159Z,3400
2016-05-21T13:22:44.006Z,3330
2016-05-21T13:23:44.023Z,3145
2016-05-21T13:24:44.167Z,3205
2016-05-21T13:25:44.170Z,3240
2016-05-21T13:26:44.187Z,3220
2016-05-21T13:27:44.190Z,2890
2016-05-21T13:28:44.178Z,2890
2016-05-21T13:29:44.025Z,2870
2016-05-21T13:30:44.012Z,3065
2016-05-21T13:31:44.201Z,2890
2016-05-21T13:32:44.047Z,2945
2016-05-21T13:33:44.191Z,2970
2016-05-21T13:34:44.194Z,2990
2016-05-21T13:35:44.197Z,3000
2016-05-21T13:36:44.184Z,3170
2016-05-21T13:37:44.030Z,3215
2016-05-21T13:38:44.205Z,3060
2016-05-21T13:39:44.191Z,2850
2016-05-21T13:40:44.211Z,2795
2016-05-21T13:41:44.650Z,2925
2016-05-21T13:42:44.215Z,1495
2016-05-21T13:43:44.202Z,2935
2016-05-21T13:44:44.221Z,2980
2016-05-21T13:45:44.208Z,2910
2016-05-21T13:46:44.226Z,2965
2016-05-21T13:47:44.057Z,3035